Time;durP1;ratioP1;P1;durP2;ratioP2;P2;SDS_P1;SDS_P2;PMS_P1;PMS_P2;Temp;Humidity;BMP_temperature;BMP_pressure;BME280_temperature;BME280_humidity;BME280_pressure;Samples;Min_cycle;Max_cycle;Signal;HPM_P1;HPM_P2
2021/10/25 00:01:31;;;;;;;11.32;3.55;;;10.10;57.70;;;;;;5051657;28;20112;-63
2021/10/25 00:03:58;;;;;;;7.78;3.17;;;10.10;57.70;;;;;;5052506;28;20032;-63
2021/10/25 00:06:24;;;;;;;8.32;3.40;;;10.10;57.80;;;;;;5052222;28;20033;-63
2021/10/25 00:08:50;;;;;;;6.40;3.13;;;10.10;57.90;;;;;;5034638;28;20040;-61
2021/10/25 00:11:16;;;;;;;10.65;3.45;;;10.10;58.10;;;;;;5052529;28;20025;-61
2021/10/25 00:13:42;;;;;;;6.10;3.20;;;10.10;58.30;;;;;;5033958;28;20110;-63
2021/10/25 00:16:08;;;;;;;9.27;3.42;;;10.10;58.60;;;;;;5051852;28;20051;-62
2021/10/25 00:18:34;;;;;;;9.40;3.75;;;10.10;58.60;;;;;;5051638;28;20025;-63
2021/10/25 00:21:01;;;;;;;10.95;3.50;;;10.10;58.60;;;;;;5052012;28;20099;-63
2021/10/25 00:23:26;;;;;;;7.13;3.67;;;10.10;58.40;;;;;;5051469;28;20025;-63
2021/10/25 00:25:52;;;;;;;10.63;3.78;;;10.10;58.60;;;;;;5051863;28;20040;-63
2021/10/25 00:28:18;;;;;;;9.57;3.42;;;10.10;58.60;;;;;;5033976;28;20029;-63
2021/10/25 00:30:44;;;;;;;9.50;3.40;;;10.10;58.70;;;;;;5051463;28;20035;-62
2021/10/25 00:33:10;;;;;;;8.82;3.20;;;10.00;58.90;;;;;;5051390;28;20025;-62
2021/10/25 00:35:35;;;;;;;7.88;3.40;;;10.00;58.90;;;;;;5051050;28;20485;-62
2021/10/25 00:38:01;;;;;;;7.38;3.25;;;10.00;58.80;;;;;;5051415;28;20029;-64
2021/10/25 00:40:46;;;;;;;13.45;3.92;;;10.00;58.80;;;;;;5033414;28;20025;-62
2021/10/25 00:43:12;;;;;;;14.05;4.13;;;10.00;59.00;;;;;;5051788;28;20033;-62
2021/10/25 00:45:38;;;;;;;8.77;3.53;;;10.00;58.70;;;;;;5050873;28;20076;-62
2021/10/25 00:48:04;;;;;;;9.77;3.10;;;10.00;58.80;;;;;;5051696;28;20367;-62
2021/10/25 00:50:30;;;;;;;9.20;3.28;;;10.00;58.80;;;;;;5050889;28;20058;-62
2021/10/25 00:52:55;;;;;;;10.73;3.30;;;10.00;58.80;;;;;;5051546;28;20021;-61
2021/10/25 00:55:22;;;;;;;7.70;3.08;;;10.00;59.00;;;;;;5051374;28;20474;-62
2021/10/25 00:57:48;;;;;;;9.18;3.10;;;10.00;59.40;;;;;;5051123;28;20119;-62
2021/10/25 01:00:14;;;;;;;9.10;3.58;;;10.00;58.60;;;;;;5033638;28;20459;-62
2021/10/25 01:02:40;;;;;;;9.98;3.47;;;10.00;58.60;;;;;;5050814;28;20079;-62
2021/10/25 01:05:08;;;;;;;11.05;3.25;;;10.00;58.60;;;;;;5033581;28;20033;-64
2021/10/25 01:07:35;;;;;;;10.15;3.15;;;10.00;58.50;;;;;;5050981;28;20032;-62
2021/10/25 01:10:02;;;;;;;7.68;3.72;;;10.00;58.40;;;;;;5051376;28;20044;-62
2021/10/25 01:12:30;;;;;;;8.90;2.75;;;10.00;58.30;;;;;;5050715;28;20445;-61
2021/10/25 01:14:56;;;;;;;9.48;3.33;;;10.00;58.40;;;;;;5051197;28;20083;-62
2021/10/25 01:17:21;;;;;;;7.25;3.05;;;10.10;58.20;;;;;;5051268;28;20024;-62
2021/10/25 01:19:52;;;;;;;10.77;3.42;;;10.00;58.50;;;;;;5050535;28;20478;-62
2021/10/25 01:22:22;;;;;;;8.23;3.42;;;10.00;58.30;;;;;;5051119;28;20032;-62
2021/10/25 01:24:50;;;;;;;9.52;2.90;;;10.00;58.20;;;;;;5050481;28;20116;-62
2021/10/25 01:27:16;;;;;;;9.02;3.30;;;10.00;58.10;;;;;;5051399;28;20104;-62
2021/10/25 01:29:43;;;;;;;7.65;3.03;;;10.00;58.20;;;;;;5050817;28;20021;-62
2021/10/25 01:32:09;;;;;;;10.30;2.80;;;9.90;58.10;;;;;;5051244;28;20375;-62
2021/10/25 01:34:35;;;;;;;7.15;2.92;;;9.90;58.40;;;;;;5032773;28;20029;-61
2021/10/25 01:37:01;;;;;;;7.65;2.83;;;9.90;58.30;;;;;;5051213;28;20025;-61
2021/10/25 01:39:27;;;;;;;6.65;2.92;;;9.90;58.30;;;;;;5033013;28;20078;-62
2021/10/25 01:41:53;;;;;;;8.50;3.30;;;9.90;58.50;;;;;;5050879;28;20051;-64
2021/10/25 01:44:18;;;;;;;6.20;3.10;;;9.90;58.30;;;;;;5035505;28;20033;-61
2021/10/25 01:46:44;;;;;;;6.78;2.83;;;9.90;58.30;;;;;;5054251;28;20465;-62
2021/10/25 01:49:10;;;;;;;11.90;3.40;;;9.90;58.20;;;;;;5037081;28;20029;-61
2021/10/25 01:51:35;;;;;;;6.32;2.83;;;9.90;58.60;;;;;;5063791;28;20215;-62
2021/10/25 01:54:02;;;;;;;9.35;3.28;;;9.90;58.20;;;;;;5074997;28;20111;-62
2021/10/25 01:56:29;;;;;;;7.88;2.88;;;9.90;58.20;;;;;;5073103;28;20077;-62
2021/10/25 01:58:55;;;;;;;11.40;3.47;;;9.90;58.10;;;;;;5075054;28;20458;-61
2021/10/25 02:01:23;;;;;;;5.85;2.80;;;9.90;58.00;;;;;;5073336;28;20032;-62
2021/10/25 02:03:49;;;;;;;9.02;3.00;;;9.90;58.60;;;;;;5073722;28;20097;-70
2021/10/25 02:06:14;;;;;;;7.20;2.92;;;9.90;58.90;;;;;;5070482;28;20044;-63
2021/10/25 02:08:40;;;;;;;152.52;94.57;;;10.10;57.70;;;;;;5070904;28;20036;-61
2021/10/25 02:11:07;;;;;;;69.72;38.33;;;10.30;57.50;;;;;;5070522;28;20020;-53
2021/10/25 02:13:51;;;;;;;27.58;13.50;;;10.30;56.90;;;;;;5069604;28;20380;-60
2021/10/25 02:16:17;;;;;;;13.82;8.05;;;10.40;56.50;;;;;;5069299;28;20036;-59
2021/10/25 02:18:43;;;;;;;18.88;9.70;;;10.50;56.10;;;;;;5070388;28;20102;-61
2021/10/25 02:21:10;;;;;;;43.67;21.85;;;10.50;55.90;;;;;;5070979;28;20063;-61
2021/10/25 02:23:36;;;;;;;16.67;8.57;;;10.50;55.50;;;;;;5072242;28;20025;-57
2021/10/25 02:26:01;;;;;;;13.48;4.63;;;10.40;55.40;;;;;;5072410;28;20041;-54
2021/10/25 02:28:28;;;;;;;54.38;25.88;;;10.30;55.50;;;;;;5071996;28;20024;-62
2021/10/25 02:30:54;;;;;;;13.98;5.80;;;10.20;55.70;;;;;;5071040;28;20024;-59
2021/10/25 02:33:21;;;;;;;24.23;13.63;;;10.20;55.60;;;;;;5070454;28;20021;-54
2021/10/25 02:35:47;;;;;;;88.32;47.42;;;10.10;56.50;;;;;;5072025;28;20039;-58
2021/10/25 02:38:13;;;;;;;120.95;71.35;;;10.10;55.90;;;;;;5071720;28;20400;-58
2021/10/25 02:40:40;;;;;;;52.67;29.65;;;10.10;55.70;;;;;;5071944;28;20074;-60
2021/10/25 02:43:06;;;;;;;77.78;44.15;;;10.10;55.60;;;;;;5070587;28;20048;-58
2021/10/25 02:45:33;;;;;;;53.80;28.70;;;10.10;55.70;;;;;;5071426;28;20580;-57
2021/10/25 02:47:59;;;;;;;25.23;13.95;;;10.20;56.00;;;;;;5070587;28;20059;-59
2021/10/25 02:50:25;;;;;;;25.10;12.05;;;10.20;55.30;;;;;;5065375;28;20057;-62
2021/10/25 02:52:51;;;;;;;82.22;46.13;;;10.20;55.30;;;;;;5033785;28;20413;-61
2021/10/25 02:55:17;;;;;;;21.90;12.00;;;10.10;55.70;;;;;;5051079;28;20029;-57
2021/10/25 02:57:43;;;;;;;84.43;50.05;;;10.10;55.40;;;;;;5051283;28;20052;-65
2021/10/25 03:00:13;;;;;;;11.43;5.18;;;10.00;55.50;;;;;;5051620;28;20097;-65
2021/10/25 03:02:39;;;;;;;5.55;2.95;;;10.00;55.30;;;;;;5051471;28;20534;-64
2021/10/25 03:05:06;;;;;;;15.95;8.18;;;9.90;55.30;;;;;;5051473;28;20043;-62
2021/10/25 03:07:33;;;;;;;8.45;4.15;;;9.90;55.50;;;;;;5033404;28;20037;-61
2021/10/25 03:09:59;;;;;;;14.80;8.07;;;9.90;55.70;;;;;;5051879;28;20033;-53
2021/10/25 03:12:26;;;;;;;9.40;3.15;;;9.80;55.60;;;;;;5051368;28;20408;-64
2021/10/25 03:14:52;;;;;;;85.18;41.85;;;9.80;55.50;;;;;;5051391;28;20104;-56
2021/10/25 03:17:18;;;;;;;37.08;20.10;;;9.90;55.80;;;;;;5050766;28;20056;-57
2021/10/25 03:19:44;;;;;;;10.43;4.88;;;9.80;55.70;;;;;;5051524;28;20064;-48
2021/10/25 03:22:12;;;;;;;48.60;23.67;;;9.80;55.70;;;;;;5050885;28;20075;-51
2021/10/25 03:24:38;;;;;;;75.50;37.38;;;9.80;55.70;;;;;;5050791;28;20044;-53
2021/10/25 03:27:03;;;;;;;27.85;13.65;;;9.70;55.70;;;;;;5050694;28;20037;-63
2021/10/25 03:29:29;;;;;;;34.47;18.15;;;9.70;55.80;;;;;;5050744;28;20029;-64
2021/10/25 03:31:55;;;;;;;20.40;10.27;;;9.70;56.00;;;;;;5033360;28;20469;-55
2021/10/25 03:34:21;;;;;;;55.95;29.17;;;9.60;56.10;;;;;;5050499;28;20025;-49
2021/10/25 03:36:49;;;;;;;34.50;16.85;;;9.60;56.30;;;;;;5050789;28;20082;-56
2021/10/25 03:39:19;;;;;;;37.28;19.38;;;9.60;56.20;;;;;;5050828;28;20017;-55
2021/10/25 03:41:47;;;;;;;83.53;47.03;;;9.60;56.30;;;;;;5051140;28;20025;-57
2021/10/25 03:44:21;;;;;;;49.30;24.83;;;9.60;56.60;;;;;;5032632;28;20039;-54
2021/10/25 03:47:02;;;;;;;;;;;9.60;56.50;;;;;;5051415;28;20029;-54
2021/10/25 03:49:41;;;;;;;26.00;12.50;;;9.60;56.50;;;;;;5050922;28;19913;-56
2021/10/25 03:55:11;;;;;;;11.73;4.57;;;9.50;56.70;;;;;;5042479;28;20146;-60
2021/10/25 03:58:39;;;;;;;11.93;4.75;;;9.50;56.60;;;;;;5050569;28;20082;-59
2021/10/25 04:00:40;;;;;;;13.65;5.28;;;9.50;56.70;;;;;;5039185;28;20428;-60
2021/10/25 04:27:53;;;;;;;22.42;11.82;;;9.80;56.30;;;;;;5046112;28;20063;-54
2021/10/25 04:30:19;;;;;;;34.20;15.90;;;9.80;56.30;;;;;;5050937;28;20057;-58
2021/10/25 04:32:46;;;;;;;22.35;9.68;;;9.80;56.30;;;;;;5051256;28;20017;-54
2021/10/25 04:35:12;;;;;;;13.57;6.60;;;9.90;56.00;;;;;;5033609;28;20036;-52
2021/10/25 04:37:38;;;;;;;16.17;8.60;;;9.90;55.80;;;;;;5051469;28;20036;-50
2021/10/25 04:40:05;;;;;;;12.88;6.60;;;9.90;56.00;;;;;;5035407;28;20370;-57
2021/10/25 04:42:33;;;;;;;14.25;7.53;;;10.00;55.50;;;;;;5048067;28;20081;-57
2021/10/25 04:44:59;;;;;;;17.13;5.45;;;10.00;55.70;;;;;;5050067;28;20036;-53
2021/10/25 04:47:25;;;;;;;14.13;5.63;;;9.90;55.70;;;;;;5051061;28;20029;-52
2021/10/25 04:49:51;;;;;;;12.63;5.93;;;10.00;55.60;;;;;;5033566;28;20104;-55
2021/10/25 04:52:16;;;;;;;13.80;7.60;;;10.00;55.70;;;;;;5051541;28;20060;-54
2021/10/25 04:54:43;;;;;;;12.43;5.47;;;10.00;55.70;;;;;;5051154;28;20032;-53
2021/10/25 04:57:09;;;;;;;10.13;5.10;;;10.00;55.30;;;;;;5051557;28;20082;-54
2021/10/25 04:59:35;;;;;;;9.60;4.50;;;10.00;55.40;;;;;;5032982;28;20025;-54
2021/10/25 05:02:01;;;;;;;7.55;3.97;;;10.00;55.30;;;;;;5051774;28;20029;-53
2021/10/25 05:04:28;;;;;;;12.30;4.97;;;10.00;55.40;;;;;;5051149;28;20029;-53
2021/10/25 05:06:54;;;;;;;11.23;4.45;;;9.90;55.40;;;;;;5033351;28;20033;-54
2021/10/25 05:09:19;;;;;;;11.73;4.68;;;10.00;55.50;;;;;;5051307;28;20028;-54
2021/10/25 05:11:45;;;;;;;9.68;4.78;;;9.90;55.60;;;;;;5050802;28;20462;-56
2021/10/25 05:14:11;;;;;;;13.07;5.18;;;9.90;55.70;;;;;;5051930;28;20112;-48
2021/10/25 05:16:37;;;;;;;9.50;4.20;;;9.80;55.70;;;;;;5050805;28;20466;-54
2021/10/25 05:19:02;;;;;;;13.82;4.72;;;9.90;56.20;;;;;;5037310;28;20021;-54
2021/10/25 05:21:28;;;;;;;9.95;4.70;;;9.90;55.60;;;;;;5054729;28;20462;-56
2021/10/25 05:23:54;;;;;;;9.60;4.18;;;9.90;55.40;;;;;;5055276;28;20108;-55
2021/10/25 05:26:20;;;;;;;10.77;3.78;;;9.80;55.50;;;;;;5055112;28;20438;-54
2021/10/25 05:28:46;;;;;;;9.85;4.28;;;9.80;55.70;;;;;;5054607;28;20052;-53
2021/10/25 05:31:13;;;;;;;11.85;3.67;;;9.80;55.80;;;;;;5055656;28;20033;-54
2021/10/25 05:33:40;;;;;;;13.90;4.25;;;9.80;55.60;;;;;;5054283;28;20032;-54
2021/10/25 05:36:07;;;;;;;10.90;4.80;;;9.70;55.80;;;;;;5055019;28;20064;-56
2021/10/25 05:38:33;;;;;;;12.65;4.57;;;9.70;56.20;;;;;;5054713;28;20032;-53
2021/10/25 05:41:00;;;;;;;11.05;4.18;;;9.70;56.10;;;;;;5054847;28;20033;-55
2021/10/25 05:43:26;;;;;;;11.27;4.13;;;9.80;56.00;;;;;;5054691;28;20048;-54
2021/10/25 05:45:52;;;;;;;11.68;4.30;;;9.70;56.10;;;;;;5037090;28;20072;-51
2021/10/25 05:48:18;;;;;;;10.18;3.83;;;9.70;56.30;;;;;;5055033;28;20366;-55
2021/10/25 05:50:45;;;;;;;11.60;4.32;;;9.70;56.60;;;;;;5049586;28;20305;-53
2021/10/25 05:53:10;;;;;;;12.02;4.50;;;9.60;56.50;;;;;;5074779;28;20024;-56
2021/10/25 05:55:38;;;;;;;15.70;4.07;;;9.60;56.70;;;;;;5074106;28;20081;-53
2021/10/25 05:58:05;;;;;;;11.68;4.32;;;9.60;56.80;;;;;;5074270;28;20136;-54
2021/10/25 06:00:37;;;;;;;12.25;4.50;;;9.60;57.00;;;;;;5072724;28;20442;-51
2021/10/25 06:03:03;;;;;;;11.93;4.32;;;9.60;57.00;;;;;;5074712;28;20485;-51
2021/10/25 06:05:30;;;;;;;13.25;4.32;;;9.60;57.20;;;;;;5074049;28;20112;-55
2021/10/25 06:07:57;;;;;;;12.43;4.70;;;9.60;57.20;;;;;;5073075;28;20530;-54
2021/10/25 06:10:32;;;;;;;6.55;3.65;;;9.60;57.10;;;;;;5074119;28;20155;-51
2021/10/25 06:13:02;;;;;;;12.02;4.32;;;9.70;57.00;;;;;;5073175;28;20029;-50
2021/10/25 06:15:36;;;;;;;10.23;4.32;;;9.70;57.20;;;;;;5073779;28;20487;-54
2021/10/25 06:18:04;;;;;;;;;;;9.70;57.00;;;;;;5073549;28;20036;-54
2021/10/25 06:20:30;;;;;;;10.10;3.78;;;9.70;56.70;;;;;;5073702;28;20356;-52
2021/10/25 06:22:57;;;;;;;11.98;3.85;;;9.60;56.90;;;;;;5074282;28;20044;-53
2021/10/25 06:25:23;;;;;;;12.65;4.47;;;9.70;56.90;;;;;;5074249;28;20115;-56
2021/10/25 06:27:51;;;;;;;13.55;4.10;;;9.70;56.90;;;;;;5072277;28;20426;-55
2021/10/25 06:30:18;;;;;;;8.95;3.90;;;9.70;57.20;;;;;;5073256;28;20130;-52
2021/10/25 06:32:44;;;;;;;8.82;3.58;;;9.80;56.70;;;;;;5073259;28;20481;-51
2021/10/25 06:35:14;;;;;;;10.40;4.28;;;9.80;56.60;;;;;;5074046;28;20082;-56
2021/10/25 06:40:35;;;;;;;9.82;3.75;;;9.80;56.50;;;;;;5059672;28;20033;-52
2021/10/25 06:43:19;;;;;;;10.65;4.30;;;9.80;56.60;;;;;;5072147;28;20029;-54
2021/10/25 06:45:45;;;;;;;8.27;3.92;;;9.90;56.30;;;;;;5072660;28;20112;-56
2021/10/25 06:48:11;;;;;;;21.10;3.90;;;10.00;56.20;;;;;;5073667;28;20116;-55
2021/10/25 06:50:39;;;;;;;12.98;4.10;;;10.00;55.70;;;;;;5065590;28;20056;-55
2021/10/25 06:53:07;;;;;;;10.43;3.83;;;10.10;55.90;;;;;;5035632;28;20025;-54
2021/10/25 06:55:34;;;;;;;10.75;3.85;;;10.20;55.50;;;;;;5053091;28;20086;-55
2021/10/25 06:58:00;;;;;;;9.95;3.53;;;10.20;55.30;;;;;;5035566;28;20037;-56
2021/10/25 07:00:26;;;;;;;12.27;4.53;;;10.20;55.20;;;;;;5053536;28;20098;-54
2021/10/25 07:02:52;;;;;;;7.93;4.03;;;10.30;55.00;;;;;;5052907;28;20033;-55
2021/10/25 07:05:17;;;;;;;10.45;3.60;;;10.40;54.70;;;;;;5035172;28;20480;-51
2021/10/25 07:07:45;;;;;;;13.50;7.45;;;10.50;54.60;;;;;;5035091;28;20086;-52
2021/10/25 07:10:12;;;;;;;12.38;7.20;;;12.20;52.90;;;;;;5052960;28;20492;-53
2021/10/25 07:12:39;;;;;;;11.80;7.97;;;15.60;45.40;;;;;;5034314;28;20029;-55
2021/10/25 07:15:05;;;;;;;14.48;6.97;;;17.80;39.70;;;;;;5052850;28;20470;-54
2021/10/25 08:11:47;;;;;;;11.30;4.00;;;14.30;43.40;;;;;;5050951;28;20052;-67
2021/10/25 08:14:14;;;;;;;9.27;4.07;;;14.00;43.90;;;;;;5051439;28;20021;-57
2021/10/25 08:16:51;;;;;;;7.78;4.07;;;13.80;44.50;;;;;;5051143;28;20082;-57
2021/10/25 08:19:30;;;;;;;13.82;3.53;;;13.70;44.70;;;;;;5051748;28;20031;-54
2021/10/25 08:22:03;;;;;;;9.43;3.70;;;13.60;45.10;;;;;;5050774;28;20032;-57
2021/10/25 08:24:43;;;;;;;11.13;3.90;;;13.60;45.20;;;;;;5033427;28;20029;-58
2021/10/25 08:27:27;;;;;;;10.00;3.58;;;13.60;45.40;;;;;;5033637;28;20056;-57
2021/10/25 08:29:53;;;;;;;12.60;3.25;;;13.50;45.70;;;;;;5050994;28;20333;-58
2021/10/25 08:40:40;;;;;;;10.20;3.53;;;13.40;45.90;;;;;;5051393;28;20028;-57
2021/10/25 08:43:07;;;;;;;10.13;3.83;;;13.40;46.00;;;;;;5033407;28;20145;-58
2021/10/25 08:45:34;;;;;;;14.00;4.45;;;13.40;46.30;;;;;;5049803;28;20119;-63
2021/10/25 08:48:02;;;;;;;10.38;3.65;;;13.50;45.90;;;;;;5032567;28;20036;-60
2021/10/25 08:50:30;;;;;;;11.50;3.83;;;13.50;45.60;;;;;;5041301;28;20068;-55
2021/10/25 08:52:58;;;;;;;16.10;3.67;;;13.50;45.80;;;;;;5052462;28;20441;-57
2021/10/25 08:55:24;;;;;;;16.50;3.97;;;13.50;45.60;;;;;;5071457;28;20131;-57
2021/10/25 08:57:51;;;;;;;16.30;4.25;;;13.50;45.70;;;;;;5069488;28;20056;-58
2021/10/25 09:00:21;;;;;;;11.93;3.63;;;13.50;45.70;;;;;;5071185;28;20525;-61
2021/10/25 09:03:01;;;;;;;16.63;4.03;;;13.60;45.70;;;;;;5070759;28;20027;-58
2021/10/25 09:05:27;;;;;;;9.43;3.47;;;13.60;45.60;;;;;;5071284;28;20060;-59
2021/10/25 09:07:58;;;;;;;13.32;4.28;;;13.60;45.40;;;;;;5070245;28;20107;-58
2021/10/25 09:10:36;;;;;;;15.23;4.28;;;13.70;45.50;;;;;;5071098;28;20357;-53
2021/10/25 09:13:07;;;;;;;12.15;4.32;;;13.80;45.30;;;;;;5070845;28;20054;-58
2021/10/25 09:15:38;;;;;;;15.45;3.90;;;13.80;45.40;;;;;;5071446;28;20028;-58
2021/10/25 09:18:14;;;;;;;10.30;3.78;;;13.80;45.20;;;;;;5069534;28;20033;-55
2021/10/25 09:20:59;;;;;;;11.43;4.07;;;13.90;44.80;;;;;;5067074;28;20028;-56
2021/10/25 09:23:31;;;;;;;11.43;4.05;;;13.90;44.50;;;;;;5070988;28;20028;-60
2021/10/25 09:26:02;;;;;;;9.63;4.38;;;13.90;44.90;;;;;;5070373;28;20267;-57
2021/10/25 09:28:37;;;;;;;11.15;3.97;;;13.90;44.80;;;;;;5070611;28;20082;-58
2021/10/25 09:31:09;;;;;;;10.63;3.80;;;13.90;44.90;;;;;;5069306;28;20028;-59
2021/10/25 09:33:36;;;;;;;12.95;4.38;;;14.00;44.90;;;;;;5069397;28;20028;-58
2021/10/25 09:36:12;;;;;;;11.27;4.22;;;14.20;44.40;;;;;;5070443;28;20039;-55
2021/10/25 09:41:47;;;;;;;12.95;4.05;;;14.20;43.80;;;;;;5070536;28;20044;-55
2021/10/25 09:49:38;;;;;;;11.70;3.90;;;14.20;43.60;;;;;;5070399;28;20086;-54
2021/10/25 09:52:07;;;;;;;12.20;3.53;;;14.30;43.60;;;;;;5050102;28;20106;-54
2021/10/25 09:54:34;;;;;;;10.27;3.90;;;14.40;43.40;;;;;;5032492;28;20021;-60
2021/10/25 09:57:22;;;;;;;10.07;4.20;;;14.50;43.10;;;;;;5031663;28;20029;-57
2021/10/25 09:59:58;;;;;;;9.45;3.85;;;14.50;42.90;;;;;;5049609;28;20056;-56
2021/10/25 10:02:24;;;;;;;10.15;3.88;;;14.60;42.60;;;;;;5032270;28;20040;-54
2021/10/25 10:05:03;;;;;;;14.23;4.25;;;14.80;42.30;;;;;;5051052;28;20040;-54
2021/10/25 10:07:29;;;;;;;11.85;3.40;;;14.80;41.90;;;;;;5053544;28;20108;-58
2021/10/25 10:09:56;;;;;;;9.52;3.50;;;14.80;41.70;;;;;;5034986;28;20032;-56
2021/10/25 10:12:24;;;;;;;13.07;3.58;;;14.90;41.70;;;;;;5035466;28;20531;-56
2021/10/25 10:14:52;;;;;;;6.78;3.53;;;15.00;41.50;;;;;;5033413;28;20029;-59
2021/10/25 10:17:22;;;;;;;10.13;3.42;;;15.00;41.30;;;;;;5034421;28;20443;-60
2021/10/25 10:19:50;;;;;;;7.75;3.40;;;15.10;41.10;;;;;;5051267;28;20108;-65
2021/10/25 10:22:18;;;;;;;9.52;3.03;;;15.10;41.00;;;;;;5034078;28;20020;-59
2021/10/25 10:24:57;;;;;;;13.27;3.85;;;15.00;41.10;;;;;;5034270;28;20029;-57
2021/10/25 10:27:24;;;;;;;9.18;3.42;;;15.10;41.00;;;;;;5053328;28;20029;-56
2021/10/25 10:29:53;;;;;;;7.53;3.20;;;15.00;40.40;;;;;;5052371;28;20021;-56
2021/10/25 10:32:20;;;;;;;8.27;2.95;;;14.90;40.30;;;;;;5035223;28;20412;-57
2021/10/25 10:34:49;;;;;;;21.65;3.03;;;14.90;40.20;;;;;;5052653;28;20033;-52
2021/10/25 10:37:24;;;;;;;9.85;3.55;;;14.80;40.10;;;;;;5052844;28;20029;-54
2021/10/25 10:40:10;;;;;;;9.32;3.15;;;14.90;40.10;;;;;;5034569;28;20103;-57
2021/10/25 10:42:37;;;;;;;10.63;3.25;;;15.00;40.00;;;;;;5053179;28;20032;-51
2021/10/25 10:45:10;;;;;;;7.38;2.80;;;15.10;39.60;;;;;;5052900;28;20365;-54
2021/10/25 10:47:39;;;;;;;9.38;3.33;;;15.20;39.30;;;;;;5053058;28;20057;-51
2021/10/25 10:50:21;;;;;;;5.60;2.97;;;15.20;39.10;;;;;;5052938;28;20053;-55
2021/10/25 10:52:58;;;;;;;10.75;2.97;;;15.30;39.80;;;;;;5018409;28;20462;-51
2021/10/25 10:55:29;;;;;;;12.20;3.20;;;15.30;38.80;;;;;;5053230;28;20489;-52
2021/10/25 11:00:36;;;;;;;7.93;2.50;;;15.60;37.20;;;;;;5053433;28;20029;-55
2021/10/25 11:03:26;;;;;;;16.35;3.42;;;15.70;36.70;;;;;;5052827;28;20185;-50
2021/10/25 11:05:58;;;;;;;7.82;2.95;;;15.70;36.40;;;;;;5021439;28;20072;-53
2021/10/25 11:08:32;;;;;;;9.18;2.70;;;15.80;35.30;;;;;;5052942;28;20078;-54
2021/10/25 11:11:00;;;;;;;8.77;3.22;;;15.80;35.60;;;;;;5034626;28;20120;-58
2021/10/25 11:13:29;;;;;;;11.20;3.08;;;15.80;35.60;;;;;;5035082;28;20024;-51
2021/10/25 11:16:11;;;;;;;6.20;2.60;;;15.90;35.30;;;;;;5034026;28;20576;-52
2021/10/25 11:18:39;;;;;;;8.05;2.78;;;16.00;35.20;;;;;;5053014;28;20055;-52
2021/10/25 11:21:14;;;;;;;8.32;2.88;;;16.00;34.80;;;;;;5052273;28;20013;-52
2021/10/25 11:23:47;;;;;;;12.05;2.97;;;16.00;35.00;;;;;;5052773;28;20079;-51
2021/10/25 11:26:19;;;;;;;8.13;2.83;;;16.00;34.40;;;;;;5052509;28;20502;-53
2021/10/25 11:29:00;;;;;;;12.50;3.10;;;16.50;33.80;;;;;;5034225;28;20029;-61
2021/10/25 11:31:27;;;;;;;7.80;2.58;;;16.60;33.30;;;;;;5034523;28;20025;-53
2021/10/25 11:33:53;;;;;;;4.85;2.70;;;16.90;33.10;;;;;;5051655;28;20207;-53
2021/10/25 11:36:22;;;;;;;8.95;3.78;;;16.70;33.30;;;;;;5052279;28;20016;-51
2021/10/25 11:38:48;;;;;;;12.23;3.38;;;16.50;33.60;;;;;;5033767;28;20459;-52
2021/10/25 11:41:14;;;;;;;8.13;2.67;;;16.50;33.40;;;;;;5034126;28;20163;-54
2021/10/25 11:43:40;;;;;;;8.80;2.90;;;16.40;33.90;;;;;;5033786;28;20059;-54
2021/10/25 11:46:21;;;;;;;6.20;2.70;;;16.40;33.80;;;;;;5051663;28;20078;-55
2021/10/25 11:48:56;;;;;;;13.55;2.72;;;16.20;34.50;;;;;;5034437;28;20124;-59
2021/10/25 11:51:23;;;;;;;7.63;2.60;;;16.10;34.20;;;;;;5057271;28;20044;-53
2021/10/25 11:53:57;;;;;;;6.15;2.83;;;16.00;34.60;;;;;;5070968;28;20493;-61
2021/10/25 11:56:24;;;;;;;10.18;2.75;;;15.90;34.70;;;;;;5071831;28;20048;-56
2021/10/25 11:58:52;;;;;;;13.23;3.50;;;16.00;34.80;;;;;;5070095;28;20108;-50
2021/10/25 12:01:18;;;;;;;6.70;2.80;;;16.10;34.90;;;;;;5072034;28;20025;-53
2021/10/25 12:03:45;;;;;;;11.00;2.92;;;16.10;34.70;;;;;;5070416;28;20025;-53
2021/10/25 12:06:19;;;;;;;10.27;2.83;;;16.00;34.80;;;;;;5071205;28;20032;-50
2021/10/25 12:09:06;;;;;;;7.70;2.72;;;16.10;34.80;;;;;;5070212;28;20043;-50
2021/10/25 12:12:03;;;;;;;5.55;2.50;;;16.10;35.00;;;;;;5070030;28;20031;-52
2021/10/25 12:14:30;;;;;;;8.35;2.70;;;16.10;34.80;;;;;;5071156;28;20032;-54
2021/10/25 12:16:56;;;;;;;12.38;3.35;;;16.10;35.50;;;;;;5070998;28;20103;-53
2021/10/25 12:19:23;;;;;;;5.35;2.50;;;16.20;35.70;;;;;;5072086;28;20025;-55
2021/10/25 12:21:50;;;;;;;7.80;3.08;;;16.30;34.90;;;;;;5071709;28;20043;-57
2021/10/25 12:24:16;;;;;;;7.80;2.72;;;16.20;35.00;;;;;;5071746;28;20025;-51
2021/10/25 12:26:43;;;;;;;12.07;3.42;;;16.10;35.00;;;;;;5069633;28;20117;-55
2021/10/25 12:29:18;;;;;;;10.65;3.03;;;16.20;34.80;;;;;;5071126;28;20436;-52
2021/10/25 12:31:45;;;;;;;8.45;2.75;;;16.20;34.60;;;;;;5071635;28;20040;-52
2021/10/25 12:34:12;;;;;;;9.00;2.88;;;16.20;34.70;;;;;;5070671;28;20033;-50
2021/10/25 12:36:42;;;;;;;6.35;2.78;;;16.80;34.60;;;;;;5071391;28;20020;-54
2021/10/25 12:39:19;;;;;;;7.05;2.90;;;17.40;33.30;;;;;;5071099;28;20068;-57
2021/10/25 12:41:44;;;;;;;9.80;2.80;;;17.50;32.90;;;;;;5071365;28;20028;-54
2021/10/25 12:44:10;;;;;;;11.18;2.88;;;17.40;32.80;;;;;;5070539;28;20264;-58
2021/10/25 12:46:36;;;;;;;9.07;3.17;;;17.20;33.20;;;;;;5069191;28;20085;-52
2021/10/25 12:49:03;;;;;;;9.85;2.95;;;17.00;34.30;;;;;;5070684;28;20028;-52
2021/10/25 12:51:41;;;;;;;9.10;2.70;;;16.80;35.60;;;;;;5056739;28;20049;-55
2021/10/25 12:54:12;;;;;;;4.93;2.58;;;16.60;35.50;;;;;;5050872;28;20039;-54
2021/10/25 12:56:38;;;;;;;6.50;3.08;;;16.60;36.00;;;;;;5046457;28;20025;-55
2021/10/25 12:59:10;;;;;;;6.63;2.60;;;16.50;35.50;;;;;;5031937;28;20097;-55
2021/10/25 13:01:36;;;;;;;11.73;3.30;;;16.40;35.50;;;;;;5050801;28;20024;-52
2021/10/25 13:04:05;;;;;;;10.85;4.00;;;16.40;35.60;;;;;;5050014;28;20026;-54
2021/10/25 13:06:32;;;;;;;8.55;3.28;;;16.20;36.10;;;;;;5051008;28;20025;-56
2021/10/25 13:09:10;;;;;;;9.27;2.95;;;16.10;36.50;;;;;;5049971;28;20033;-57
2021/10/25 13:11:37;;;;;;;11.10;3.00;;;16.10;36.50;;;;;;5050610;28;20021;-55
2021/10/25 13:14:03;;;;;;;6.70;2.72;;;16.20;36.60;;;;;;5032345;28;20107;-53
2021/10/25 13:16:42;;;;;;;9.18;3.33;;;16.20;36.80;;;;;;5050263;28;20083;-55
2021/10/25 13:19:08;;;;;;;8.27;2.88;;;16.20;36.30;;;;;;5049783;28;20138;-51
2021/10/25 13:21:34;;;;;;;7.25;2.55;;;16.10;36.00;;;;;;5032692;28;20486;-54
2021/10/25 13:24:00;;;;;;;6.35;2.53;;;16.10;36.50;;;;;;5050006;28;20021;-52
2021/10/25 13:26:27;;;;;;;8.52;3.08;;;16.10;36.60;;;;;;5016333;28;20545;-54
2021/10/25 13:28:53;;;;;;;6.25;2.83;;;15.90;36.80;;;;;;5050817;28;20029;-48
2021/10/25 13:31:18;;;;;;;7.82;3.30;;;15.80;37.10;;;;;;5049969;28;20481;-50
2021/10/25 13:33:45;;;;;;;5.95;3.42;;;15.70;37.20;;;;;;5032624;28;20029;-51
2021/10/25 13:36:11;;;;;;;10.80;4.20;;;15.70;37.40;;;;;;5049938;28;20029;-52
2021/10/25 13:38:37;;;;;;;10.05;3.42;;;15.70;37.50;;;;;;5050627;28;20036;-51
2021/10/25 13:41:03;;;;;;;13.60;3.55;;;15.70;38.30;;;;;;5053816;28;20442;-53
2021/10/25 13:43:29;;;;;;;15.82;3.65;;;15.70;37.60;;;;;;5036546;28;20029;-53
2021/10/25 13:45:55;;;;;;;11.30;3.42;;;15.60;37.80;;;;;;5035999;28;20033;-63
2021/10/25 13:48:21;;;;;;;6.80;3.72;;;15.60;37.70;;;;;;5054627;28;20033;-53
2021/10/25 13:50:47;;;;;;;6.50;3.63;;;15.60;37.80;;;;;;5049953;28;20494;-54
2021/10/25 13:53:13;;;;;;;8.57;3.40;;;15.50;38.00;;;;;;5073910;28;20031;-54
2021/10/25 13:55:39;;;;;;;7.60;3.22;;;15.60;38.00;;;;;;5073095;28;20036;-52
2021/10/25 13:58:05;;;;;;;10.40;4.63;;;15.50;38.20;;;;;;5073803;28;20028;-54
2021/10/25 14:00:31;;;;;;;7.05;3.38;;;15.50;38.50;;;;;;5072618;28;20469;-49
2021/10/25 14:02:58;;;;;;;15.05;4.13;;;15.60;38.30;;;;;;5073786;28;20070;-56
2021/10/25 14:05:24;;;;;;;14.95;3.78;;;15.60;38.20;;;;;;5072836;28;20036;-53
2021/10/25 14:07:50;;;;;;;12.13;3.70;;;15.60;38.10;;;;;;5073951;28;20032;-53
2021/10/25 14:12:46;;;;;;;9.23;2.85;;;15.50;38.20;;;;;;5073016;28;20359;-56
2021/10/25 14:17:42;;;;;;;8.73;3.00;;;15.40;38.10;;;;;;5073699;28;20020;-52
2021/10/25 14:20:10;;;;;;;9.80;3.30;;;15.40;37.80;;;;;;5056566;28;20446;-62
2021/10/25 14:22:36;;;;;;;7.25;3.38;;;15.40;38.40;;;;;;5060994;28;20069;-53
2021/10/25 14:25:03;;;;;;;10.63;3.58;;;15.40;38.70;;;;;;5042824;28;20036;-55
2021/10/25 14:27:29;;;;;;;24.98;3.47;;;15.30;38.90;;;;;;5065983;28;20048;-55
2021/10/25 14:29:56;;;;;;;16.48;2.95;;;15.20;38.90;;;;;;5071567;28;20481;-58
2021/10/25 14:32:22;;;;;;;11.80;3.45;;;15.10;39.00;;;;;;5069520;28;20078;-55
2021/10/25 14:34:48;;;;;;;14.48;4.47;;;15.10;39.40;;;;;;5068868;28;20028;-59
2021/10/25 14:37:16;;;;;;;13.13;4.30;;;15.10;39.30;;;;;;5064309;28;20115;-49
2021/10/25 14:39:47;;;;;;;7.82;3.95;;;15.10;39.50;;;;;;5072132;28;20111;-55